sensor_id;sensor_type;location;lat;lon;timestamp;P1;durP1;ratioP1;P2;durP2;ratioP2
6842;SDS011;3460;52.028;8.916;2023-04-09T00:00:10;38.07;;;22.30;;
6842;SDS011;3460;52.028;8.916;2023-04-09T00:02:39;38.33;;;21.10;;
6842;SDS011;3460;52.028;8.916;2023-04-09T00:05:06;39.60;;;20.63;;
6842;SDS011;3460;52.028;8.916;2023-04-09T00:07:33;34.27;;;19.93;;
6842;SDS011;3460;52.028;8.916;2023-04-09T00:10:00;38.83;;;21.03;;
6842;SDS011;3460;52.028;8.916;2023-04-09T00:12:27;34.80;;;20.33;;
6842;SDS011;3460;52.028;8.916;2023-04-09T00:14:54;59.80;;;28.63;;
6842;SDS011;3460;52.028;8.916;2023-04-09T00:17:21;36.37;;;21.73;;
6842;SDS011;3460;52.028;8.916;2023-04-09T00:19:49;33.40;;;18.90;;
6842;SDS011;3460;52.028;8.916;2023-04-09T00:22:16;33.70;;;18.80;;
6842;SDS011;3460;52.028;8.916;2023-04-09T00:24:43;36.83;;;20.37;;
6842;SDS011;3460;52.028;8.916;2023-04-09T00:27:10;32.73;;;19.47;;
6842;SDS011;3460;52.028;8.916;2023-04-09T00:29:36;39.17;;;20.40;;
6842;SDS011;3460;52.028;8.916;2023-04-09T00:32:04;34.47;;;20.23;;
6842;SDS011;3460;52.028;8.916;2023-04-09T00:34:31;38.03;;;21.83;;
6842;SDS011;3460;52.028;8.916;2023-04-09T00:36:59;33.27;;;19.53;;
6842;SDS011;3460;52.028;8.916;2023-04-09T00:39:26;38.83;;;20.97;;
6842;SDS011;3460;52.028;8.916;2023-04-09T00:41:54;39.07;;;21.63;;
6842;SDS011;3460;52.028;8.916;2023-04-09T00:44:22;39.50;;;21.47;;
6842;SDS011;3460;52.028;8.916;2023-04-09T00:46:49;37.63;;;21.33;;
6842;SDS011;3460;52.028;8.916;2023-04-09T00:49:17;36.27;;;21.03;;
6842;SDS011;3460;52.028;8.916;2023-04-09T00:51:44;36.23;;;20.00;;
6842;SDS011;3460;52.028;8.916;2023-04-09T00:54:13;38.10;;;19.80;;
6842;SDS011;3460;52.028;8.916;2023-04-09T00:56:40;33.10;;;20.20;;
6842;SDS011;3460;52.028;8.916;2023-04-09T00:59:07;35.80;;;20.17;;
6842;SDS011;3460;52.028;8.916;2023-04-09T01:01:34;35.40;;;19.60;;
6842;SDS011;3460;52.028;8.916;2023-04-09T01:04:01;35.10;;;19.77;;
6842;SDS011;3460;52.028;8.916;2023-04-09T01:06:31;34.03;;;19.33;;
6842;SDS011;3460;52.028;8.916;2023-04-09T01:09:04;35.37;;;19.63;;
6842;SDS011;3460;52.028;8.916;2023-04-09T01:11:36;34.57;;;20.23;;
6842;SDS011;3460;52.028;8.916;2023-04-09T01:14:07;40.10;;;21.17;;
6842;SDS011;3460;52.028;8.916;2023-04-09T01:16:46;44.67;;;22.93;;
6842;SDS011;3460;52.028;8.916;2023-04-09T01:19:20;39.37;;;22.63;;
6842;SDS011;3460;52.028;8.916;2023-04-09T01:21:58;42.30;;;22.93;;
6842;SDS011;3460;52.028;8.916;2023-04-09T01:24:30;37.77;;;22.57;;
6842;SDS011;3460;52.028;8.916;2023-04-09T01:27:08;39.83;;;21.97;;
6842;SDS011;3460;52.028;8.916;2023-04-09T01:29:38;34.50;;;20.07;;
6842;SDS011;3460;52.028;8.916;2023-04-09T01:32:10;39.33;;;22.17;;
6842;SDS011;3460;52.028;8.916;2023-04-09T01:34:38;38.90;;;21.63;;
6842;SDS011;3460;52.028;8.916;2023-04-09T01:37:07;37.30;;;21.63;;
6842;SDS011;3460;52.028;8.916;2023-04-09T01:39:35;37.00;;;21.57;;
6842;SDS011;3460;52.028;8.916;2023-04-09T01:42:03;42.23;;;22.67;;
6842;SDS011;3460;52.028;8.916;2023-04-09T01:44:33;42.80;;;23.07;;
6842;SDS011;3460;52.028;8.916;2023-04-09T01:47:04;44.50;;;23.77;;
6842;SDS011;3460;52.028;8.916;2023-04-09T01:49:33;35.60;;;21.27;;
6842;SDS011;3460;52.028;8.916;2023-04-09T01:52:01;39.23;;;23.00;;
6842;SDS011;3460;52.028;8.916;2023-04-09T01:54:28;37.43;;;21.90;;
6842;SDS011;3460;52.028;8.916;2023-04-09T01:56:55;37.17;;;21.00;;
6842;SDS011;3460;52.028;8.916;2023-04-09T01:59:23;39.33;;;22.20;;
6842;SDS011;3460;52.028;8.916;2023-04-09T02:01:52;42.47;;;20.40;;
6842;SDS011;3460;52.028;8.916;2023-04-09T02:04:22;39.07;;;21.40;;
6842;SDS011;3460;52.028;8.916;2023-04-09T02:06:56;40.57;;;21.67;;
6842;SDS011;3460;52.028;8.916;2023-04-09T02:09:28;37.40;;;21.77;;
6842;SDS011;3460;52.028;8.916;2023-04-09T02:11:57;38.47;;;22.57;;
6842;SDS011;3460;52.028;8.916;2023-04-09T02:14:26;38.67;;;22.90;;
6842;SDS011;3460;52.028;8.916;2023-04-09T02:16:54;38.53;;;22.07;;
6842;SDS011;3460;52.028;8.916;2023-04-09T02:19:23;38.87;;;21.13;;
6842;SDS011;3460;52.028;8.916;2023-04-09T02:21:50;38.43;;;22.13;;
6842;SDS011;3460;52.028;8.916;2023-04-09T02:24:16;42.50;;;22.60;;
6842;SDS011;3460;52.028;8.916;2023-04-09T02:26:43;41.70;;;23.57;;
6842;SDS011;3460;52.028;8.916;2023-04-09T02:29:10;42.00;;;23.43;;
6842;SDS011;3460;52.028;8.916;2023-04-09T02:31:37;40.43;;;23.03;;
6842;SDS011;3460;52.028;8.916;2023-04-09T02:34:03;42.47;;;23.13;;
6842;SDS011;3460;52.028;8.916;2023-04-09T02:36:32;47.87;;;24.93;;
6842;SDS011;3460;52.028;8.916;2023-04-09T02:38:58;48.33;;;25.23;;
6842;SDS011;3460;52.028;8.916;2023-04-09T02:41:25;44.70;;;23.97;;
6842;SDS011;3460;52.028;8.916;2023-04-09T02:43:52;49.03;;;26.00;;
6842;SDS011;3460;52.028;8.916;2023-04-09T02:46:19;44.97;;;23.70;;
6842;SDS011;3460;52.028;8.916;2023-04-09T02:48:46;45.83;;;25.07;;
6842;SDS011;3460;52.028;8.916;2023-04-09T02:51:13;45.67;;;24.47;;
6842;SDS011;3460;52.028;8.916;2023-04-09T02:53:41;47.77;;;23.53;;
6842;SDS011;3460;52.028;8.916;2023-04-09T02:56:09;48.30;;;24.67;;
6842;SDS011;3460;52.028;8.916;2023-04-09T02:58:36;44.27;;;23.97;;
6842;SDS011;3460;52.028;8.916;2023-04-09T03:01:03;46.53;;;25.87;;
6842;SDS011;3460;52.028;8.916;2023-04-09T03:03:30;51.93;;;25.80;;
6842;SDS011;3460;52.028;8.916;2023-04-09T03:05:57;47.70;;;26.47;;
6842;SDS011;3460;52.028;8.916;2023-04-09T03:08:23;52.10;;;26.50;;
6842;SDS011;3460;52.028;8.916;2023-04-09T03:10:52;48.13;;;25.77;;
6842;SDS011;3460;52.028;8.916;2023-04-09T03:13:19;53.67;;;25.93;;
6842;SDS011;3460;52.028;8.916;2023-04-09T03:15:49;58.10;;;28.53;;
6842;SDS011;3460;52.028;8.916;2023-04-09T03:18:16;52.47;;;27.57;;
6842;SDS011;3460;52.028;8.916;2023-04-09T03:20:43;49.20;;;27.70;;
6842;SDS011;3460;52.028;8.916;2023-04-09T03:23:10;50.53;;;28.23;;
6842;SDS011;3460;52.028;8.916;2023-04-09T03:25:37;50.47;;;26.90;;
6842;SDS011;3460;52.028;8.916;2023-04-09T03:28:05;52.67;;;27.33;;
6842;SDS011;3460;52.028;8.916;2023-04-09T03:30:32;47.30;;;25.77;;
6842;SDS011;3460;52.028;8.916;2023-04-09T03:32:59;53.97;;;27.97;;
6842;SDS011;3460;52.028;8.916;2023-04-09T03:35:26;47.10;;;27.33;;
6842;SDS011;3460;52.028;8.916;2023-04-09T03:37:53;55.30;;;29.37;;
6842;SDS011;3460;52.028;8.916;2023-04-09T03:40:19;55.67;;;30.43;;
6842;SDS011;3460;52.028;8.916;2023-04-09T03:42:46;54.10;;;28.90;;
6842;SDS011;3460;52.028;8.916;2023-04-09T03:45:14;57.47;;;30.60;;
6842;SDS011;3460;52.028;8.916;2023-04-09T03:47:41;60.33;;;30.80;;
6842;SDS011;3460;52.028;8.916;2023-04-09T03:50:09;56.33;;;31.30;;
6842;SDS011;3460;52.028;8.916;2023-04-09T03:52:35;57.37;;;30.87;;
6842;SDS011;3460;52.028;8.916;2023-04-09T03:55:02;55.97;;;29.23;;
6842;SDS011;3460;52.028;8.916;2023-04-09T03:57:30;56.17;;;29.00;;
6842;SDS011;3460;52.028;8.916;2023-04-09T03:59:57;51.57;;;30.27;;
6842;SDS011;3460;52.028;8.916;2023-04-09T04:02:25;59.33;;;30.30;;
6842;SDS011;3460;52.028;8.916;2023-04-09T04:04:54;53.40;;;28.73;;
6842;SDS011;3460;52.028;8.916;2023-04-09T04:07:21;56.37;;;29.00;;
6842;SDS011;3460;52.028;8.916;2023-04-09T04:09:48;57.13;;;30.23;;
6842;SDS011;3460;52.028;8.916;2023-04-09T04:12:14;61.63;;;31.07;;
6842;SDS011;3460;52.028;8.916;2023-04-09T04:14:41;62.70;;;30.73;;
6842;SDS011;3460;52.028;8.916;2023-04-09T04:17:09;56.53;;;29.87;;
6842;SDS011;3460;52.028;8.916;2023-04-09T04:19:37;64.77;;;29.73;;
6842;SDS011;3460;52.028;8.916;2023-04-09T04:22:04;64.47;;;31.40;;
6842;SDS011;3460;52.028;8.916;2023-04-09T04:24:30;61.23;;;31.30;;
6842;SDS011;3460;52.028;8.916;2023-04-09T04:26:57;62.87;;;31.23;;
6842;SDS011;3460;52.028;8.916;2023-04-09T04:29:26;64.17;;;32.37;;
6842;SDS011;3460;52.028;8.916;2023-04-09T04:31:52;63.20;;;31.43;;
6842;SDS011;3460;52.028;8.916;2023-04-09T04:34:19;66.30;;;32.43;;
6842;SDS011;3460;52.028;8.916;2023-04-09T04:36:47;67.43;;;32.63;;
6842;SDS011;3460;52.028;8.916;2023-04-09T04:39:14;68.90;;;33.97;;
6842;SDS011;3460;52.028;8.916;2023-04-09T04:41:41;66.10;;;32.87;;
6842;SDS011;3460;52.028;8.916;2023-04-09T04:44:08;71.90;;;33.80;;
6842;SDS011;3460;52.028;8.916;2023-04-09T04:46:35;71.60;;;32.57;;
6842;SDS011;3460;52.028;8.916;2023-04-09T04:49:01;65.80;;;31.83;;
6842;SDS011;3460;52.028;8.916;2023-04-09T04:51:29;64.07;;;32.43;;
6842;SDS011;3460;52.028;8.916;2023-04-09T04:53:57;67.43;;;33.10;;
6842;SDS011;3460;52.028;8.916;2023-04-09T04:56:24;64.37;;;30.63;;
6842;SDS011;3460;52.028;8.916;2023-04-09T04:58:51;72.67;;;31.27;;
6842;SDS011;3460;52.028;8.916;2023-04-09T05:01:18;57.53;;;30.73;;
6842;SDS011;3460;52.028;8.916;2023-04-09T05:03:45;62.03;;;31.53;;
6842;SDS011;3460;52.028;8.916;2023-04-09T05:06:11;57.97;;;30.07;;
6842;SDS011;3460;52.028;8.916;2023-04-09T05:08:38;60.73;;;30.37;;
6842;SDS011;3460;52.028;8.916;2023-04-09T05:11:09;58.03;;;31.43;;
6842;SDS011;3460;52.028;8.916;2023-04-09T05:13:36;58.03;;;30.43;;
6842;SDS011;3460;52.028;8.916;2023-04-09T05:16:03;58.13;;;29.40;;
6842;SDS011;3460;52.028;8.916;2023-04-09T05:18:30;58.37;;;30.77;;
6842;SDS011;3460;52.028;8.916;2023-04-09T05:20:57;57.07;;;29.93;;
6842;SDS011;3460;52.028;8.916;2023-04-09T05:23:24;50.90;;;28.73;;
6842;SDS011;3460;52.028;8.916;2023-04-09T05:25:51;54.27;;;30.80;;
6842;SDS011;3460;52.028;8.916;2023-04-09T05:28:19;58.90;;;29.07;;
6842;SDS011;3460;52.028;8.916;2023-04-09T05:30:46;60.77;;;31.50;;
6842;SDS011;3460;52.028;8.916;2023-04-09T05:33:13;51.97;;;29.87;;
6842;SDS011;3460;52.028;8.916;2023-04-09T05:35:40;57.23;;;28.93;;
6842;SDS011;3460;52.028;8.916;2023-04-09T05:38:07;50.63;;;28.17;;
6842;SDS011;3460;52.028;8.916;2023-04-09T05:40:34;54.37;;;29.00;;
6842;SDS011;3460;52.028;8.916;2023-04-09T05:43:00;55.87;;;28.80;;
6842;SDS011;3460;52.028;8.916;2023-04-09T05:45:29;60.67;;;30.50;;
6842;SDS011;3460;52.028;8.916;2023-04-09T05:47:55;56.43;;;29.77;;
6842;SDS011;3460;52.028;8.916;2023-04-09T05:50:22;55.50;;;29.37;;
6842;SDS011;3460;52.028;8.916;2023-04-09T05:52:49;55.77;;;28.70;;
6842;SDS011;3460;52.028;8.916;2023-04-09T05:55:16;63.67;;;29.60;;
6842;SDS011;3460;52.028;8.916;2023-04-09T05:57:43;55.17;;;28.33;;
6842;SDS011;3460;52.028;8.916;2023-04-09T06:00:10;48.90;;;27.37;;
6842;SDS011;3460;52.028;8.916;2023-04-09T06:02:40;54.10;;;27.13;;
6842;SDS011;3460;52.028;8.916;2023-04-09T06:05:07;41.40;;;24.43;;
6842;SDS011;3460;52.028;8.916;2023-04-09T06:07:34;46.93;;;26.33;;
6842;SDS011;3460;52.028;8.916;2023-04-09T06:10:01;46.50;;;26.03;;
6842;SDS011;3460;52.028;8.916;2023-04-09T06:12:28;42.27;;;25.17;;
6842;SDS011;3460;52.028;8.916;2023-04-09T06:14:55;47.43;;;23.67;;
6842;SDS011;3460;52.028;8.916;2023-04-09T06:17:22;43.17;;;24.80;;
6842;SDS011;3460;52.028;8.916;2023-04-09T06:19:51;42.07;;;25.47;;
6842;SDS011;3460;52.028;8.916;2023-04-09T06:22:17;40.03;;;26.03;;
6842;SDS011;3460;52.028;8.916;2023-04-09T06:24:44;40.97;;;24.87;;
6842;SDS011;3460;52.028;8.916;2023-04-09T06:27:11;43.23;;;24.77;;
6842;SDS011;3460;52.028;8.916;2023-04-09T06:29:38;41.97;;;25.07;;
6842;SDS011;3460;52.028;8.916;2023-04-09T06:32:05;36.87;;;23.77;;
6842;SDS011;3460;52.028;8.916;2023-04-09T06:34:32;40.27;;;23.43;;
6842;SDS011;3460;52.028;8.916;2023-04-09T06:37:01;35.47;;;22.93;;
6842;SDS011;3460;52.028;8.916;2023-04-09T06:39:27;40.33;;;23.53;;
6842;SDS011;3460;52.028;8.916;2023-04-09T06:41:54;41.80;;;25.37;;
6842;SDS011;3460;52.028;8.916;2023-04-09T06:44:21;48.10;;;25.40;;
6842;SDS011;3460;52.028;8.916;2023-04-09T06:46:49;38.50;;;23.63;;
6842;SDS011;3460;52.028;8.916;2023-04-09T06:49:16;38.67;;;25.40;;
6842;SDS011;3460;52.028;8.916;2023-04-09T06:51:42;41.53;;;25.07;;
6842;SDS011;3460;52.028;8.916;2023-04-09T06:54:11;41.47;;;25.70;;
6842;SDS011;3460;52.028;8.916;2023-04-09T06:56:37;41.40;;;24.23;;
6842;SDS011;3460;52.028;8.916;2023-04-09T06:59:04;39.17;;;25.50;;
6842;SDS011;3460;52.028;8.916;2023-04-09T07:01:31;40.43;;;25.43;;
6842;SDS011;3460;52.028;8.916;2023-04-09T07:03:59;38.43;;;24.23;;
6842;SDS011;3460;52.028;8.916;2023-04-09T07:06:26;44.60;;;24.27;;
6842;SDS011;3460;52.028;8.916;2023-04-09T07:08:53;40.53;;;24.87;;
6842;SDS011;3460;52.028;8.916;2023-04-09T07:11:21;38.33;;;23.90;;
6842;SDS011;3460;52.028;8.916;2023-04-09T07:13:48;35.77;;;24.60;;
6842;SDS011;3460;52.028;8.916;2023-04-09T07:16:15;38.43;;;24.67;;
6842;SDS011;3460;52.028;8.916;2023-04-09T07:18:42;36.40;;;23.37;;
6842;SDS011;3460;52.028;8.916;2023-04-09T07:21:09;36.10;;;24.07;;
6842;SDS011;3460;52.028;8.916;2023-04-09T07:23:36;38.37;;;23.97;;
6842;SDS011;3460;52.028;8.916;2023-04-09T07:26:03;37.40;;;23.33;;
6842;SDS011;3460;52.028;8.916;2023-04-09T07:28:31;42.53;;;23.77;;
6842;SDS011;3460;52.028;8.916;2023-04-09T07:30:59;34.53;;;22.87;;
6842;SDS011;3460;52.028;8.916;2023-04-09T07:33:26;36.20;;;22.70;;
6842;SDS011;3460;52.028;8.916;2023-04-09T07:35:53;36.23;;;23.50;;
6842;SDS011;3460;52.028;8.916;2023-04-09T07:38:20;36.77;;;23.20;;
6842;SDS011;3460;52.028;8.916;2023-04-09T07:40:47;33.13;;;23.43;;
6842;SDS011;3460;52.028;8.916;2023-04-09T07:43:14;36.47;;;23.73;;
6842;SDS011;3460;52.028;8.916;2023-04-09T07:45:42;36.23;;;23.83;;
6842;SDS011;3460;52.028;8.916;2023-04-09T07:48:09;33.77;;;22.23;;
6842;SDS011;3460;52.028;8.916;2023-04-09T07:50:36;33.00;;;22.93;;
6842;SDS011;3460;52.028;8.916;2023-04-09T07:53:03;31.37;;;22.27;;
6842;SDS011;3460;52.028;8.916;2023-04-09T07:55:30;30.87;;;22.10;;
6842;SDS011;3460;52.028;8.916;2023-04-09T07:57:57;32.43;;;22.40;;
6842;SDS011;3460;52.028;8.916;2023-04-09T08:00:24;30.83;;;22.30;;
6842;SDS011;3460;52.028;8.916;2023-04-09T08:02:52;33.10;;;21.53;;
6842;SDS011;3460;52.028;8.916;2023-04-09T08:05:19;31.20;;;22.70;;
6842;SDS011;3460;52.028;8.916;2023-04-09T08:07:46;32.27;;;22.20;;
6842;SDS011;3460;52.028;8.916;2023-04-09T08:10:12;28.13;;;21.07;;
6842;SDS011;3460;52.028;8.916;2023-04-09T08:12:40;28.27;;;21.67;;
6842;SDS011;3460;52.028;8.916;2023-04-09T08:15:07;29.83;;;21.37;;
6842;SDS011;3460;52.028;8.916;2023-04-09T08:17:34;28.90;;;20.77;;
6842;SDS011;3460;52.028;8.916;2023-04-09T08:20:03;27.53;;;19.67;;
6842;SDS011;3460;52.028;8.916;2023-04-09T08:22:31;28.03;;;19.67;;
6842;SDS011;3460;52.028;8.916;2023-04-09T08:24:58;26.67;;;19.77;;
6842;SDS011;3460;52.028;8.916;2023-04-09T08:27:25;26.67;;;19.40;;
6842;SDS011;3460;52.028;8.916;2023-04-09T08:29:52;25.27;;;19.33;;
6842;SDS011;3460;52.028;8.916;2023-04-09T08:32:18;24.43;;;19.50;;
6842;SDS011;3460;52.028;8.916;2023-04-09T08:34:46;27.00;;;19.53;;
6842;SDS011;3460;52.028;8.916;2023-04-09T08:37:14;22.63;;;16.93;;
6842;SDS011;3460;52.028;8.916;2023-04-09T08:39:41;27.33;;;19.43;;
6842;SDS011;3460;52.028;8.916;2023-04-09T08:42:08;26.00;;;18.63;;
6842;SDS011;3460;52.028;8.916;2023-04-09T08:44:37;24.47;;;18.97;;
6842;SDS011;3460;52.028;8.916;2023-04-09T08:47:06;25.50;;;18.27;;
6842;SDS011;3460;52.028;8.916;2023-04-09T08:49:35;26.67;;;18.07;;
6842;SDS011;3460;52.028;8.916;2023-04-09T08:52:03;24.07;;;16.73;;
6842;SDS011;3460;52.028;8.916;2023-04-09T08:54:32;25.17;;;17.73;;
6842;SDS011;3460;52.028;8.916;2023-04-09T08:56:59;25.73;;;17.13;;
6842;SDS011;3460;52.028;8.916;2023-04-09T08:59:30;24.40;;;17.23;;
6842;SDS011;3460;52.028;8.916;2023-04-09T09:02:06;24.70;;;18.20;;
6842;SDS011;3460;52.028;8.916;2023-04-09T09:04:42;24.97;;;17.20;;
6842;SDS011;3460;52.028;8.916;2023-04-09T09:07:10;22.50;;;15.90;;
6842;SDS011;3460;52.028;8.916;2023-04-09T09:09:50;23.90;;;16.47;;
6842;SDS011;3460;52.028;8.916;2023-04-09T09:12:30;21.90;;;15.50;;
6842;SDS011;3460;52.028;8.916;2023-04-09T09:15:02;21.60;;;15.87;;
6842;SDS011;3460;52.028;8.916;2023-04-09T09:17:29;21.07;;;16.17;;
6842;SDS011;3460;52.028;8.916;2023-04-09T09:19:56;21.40;;;14.97;;
6842;SDS011;3460;52.028;8.916;2023-04-09T09:22:23;19.37;;;15.17;;
6842;SDS011;3460;52.028;8.916;2023-04-09T09:24:52;19.70;;;15.03;;
6842;SDS011;3460;52.028;8.916;2023-04-09T09:27:32;21.33;;;14.93;;
6842;SDS011;3460;52.028;8.916;2023-04-09T09:30:00;17.90;;;13.37;;
6842;SDS011;3460;52.028;8.916;2023-04-09T09:32:29;19.70;;;14.00;;
6842;SDS011;3460;52.028;8.916;2023-04-09T09:34:57;17.90;;;13.53;;
6842;SDS011;3460;52.028;8.916;2023-04-09T09:37:26;18.80;;;13.73;;
6842;SDS011;3460;52.028;8.916;2023-04-09T09:39:55;21.17;;;14.57;;
6842;SDS011;3460;52.028;8.916;2023-04-09T09:42:22;20.33;;;13.93;;
6842;SDS011;3460;52.028;8.916;2023-04-09T09:44:50;17.73;;;13.47;;
6842;SDS011;3460;52.028;8.916;2023-04-09T09:47:18;18.53;;;13.40;;
6842;SDS011;3460;52.028;8.916;2023-04-09T09:49:46;20.10;;;13.57;;
6842;SDS011;3460;52.028;8.916;2023-04-09T09:52:13;19.13;;;13.67;;
6842;SDS011;3460;52.028;8.916;2023-04-09T09:54:42;17.20;;;12.97;;
6842;SDS011;3460;52.028;8.916;2023-04-09T09:57:14;16.57;;;11.73;;
6842;SDS011;3460;52.028;8.916;2023-04-09T09:59:46;18.00;;;12.07;;
6842;SDS011;3460;52.028;8.916;2023-04-09T10:02:17;14.70;;;11.83;;
6842;SDS011;3460;52.028;8.916;2023-04-09T10:04:45;17.37;;;12.13;;
6842;SDS011;3460;52.028;8.916;2023-04-09T10:07:14;14.87;;;11.33;;
6842;SDS011;3460;52.028;8.916;2023-04-09T10:09:44;17.13;;;11.83;;
6842;SDS011;3460;52.028;8.916;2023-04-09T10:12:15;16.03;;;11.53;;
6842;SDS011;3460;52.028;8.916;2023-04-09T10:14:43;13.47;;;10.97;;
6842;SDS011;3460;52.028;8.916;2023-04-09T10:17:11;15.27;;;11.70;;
6842;SDS011;3460;52.028;8.916;2023-04-09T10:19:42;15.67;;;11.60;;
6842;SDS011;3460;52.028;8.916;2023-04-09T10:22:12;15.63;;;11.70;;
6842;SDS011;3460;52.028;8.916;2023-04-09T10:24:44;16.87;;;12.67;;
6842;SDS011;3460;52.028;8.916;2023-04-09T10:27:11;16.67;;;12.20;;
6842;SDS011;3460;52.028;8.916;2023-04-09T10:29:42;14.47;;;11.33;;
6842;SDS011;3460;52.028;8.916;2023-04-09T10:32:10;14.73;;;11.47;;
6842;SDS011;3460;52.028;8.916;2023-04-09T10:34:38;15.03;;;12.07;;
6842;SDS011;3460;52.028;8.916;2023-04-09T10:37:06;16.03;;;11.80;;
6842;SDS011;3460;52.028;8.916;2023-04-09T10:39:37;17.37;;;12.20;;
6842;SDS011;3460;52.028;8.916;2023-04-09T10:42:07;15.40;;;11.70;;
6842;SDS011;3460;52.028;8.916;2023-04-09T10:44:37;17.67;;;11.53;;
6842;SDS011;3460;52.028;8.916;2023-04-09T10:47:08;15.17;;;11.40;;
6842;SDS011;3460;52.028;8.916;2023-04-09T10:49:36;16.23;;;12.13;;
6842;SDS011;3460;52.028;8.916;2023-04-09T10:52:04;14.27;;;11.13;;
6842;SDS011;3460;52.028;8.916;2023-04-09T10:54:41;15.27;;;11.10;;
6842;SDS011;3460;52.028;8.916;2023-04-09T10:57:10;15.13;;;11.50;;
6842;SDS011;3460;52.028;8.916;2023-04-09T10:59:39;15.73;;;11.43;;
6842;SDS011;3460;52.028;8.916;2023-04-09T11:02:09;15.77;;;11.27;;
6842;SDS011;3460;52.028;8.916;2023-04-09T11:04:54;13.93;;;10.53;;
6842;SDS011;3460;52.028;8.916;2023-04-09T11:07:32;14.07;;;10.80;;
6842;SDS011;3460;52.028;8.916;2023-04-09T11:10:02;17.20;;;11.27;;
6842;SDS011;3460;52.028;8.916;2023-04-09T11:12:29;15.77;;;11.60;;
6842;SDS011;3460;52.028;8.916;2023-04-09T11:14:56;13.33;;;10.63;;
6842;SDS011;3460;52.028;8.916;2023-04-09T11:17:24;14.10;;;11.37;;
6842;SDS011;3460;52.028;8.916;2023-04-09T11:19:52;15.07;;;12.00;;
6842;SDS011;3460;52.028;8.916;2023-04-09T11:22:20;14.67;;;11.23;;
6842;SDS011;3460;52.028;8.916;2023-04-09T11:24:46;15.10;;;11.10;;
6842;SDS011;3460;52.028;8.916;2023-04-09T11:27:15;16.83;;;11.37;;
6842;SDS011;3460;52.028;8.916;2023-04-09T11:29:43;13.87;;;10.60;;
6842;SDS011;3460;52.028;8.916;2023-04-09T11:32:11;15.07;;;11.50;;
6842;SDS011;3460;52.028;8.916;2023-04-09T11:34:39;14.53;;;11.23;;
6842;SDS011;3460;52.028;8.916;2023-04-09T11:37:06;16.00;;;10.90;;
6842;SDS011;3460;52.028;8.916;2023-04-09T11:39:42;14.00;;;10.57;;
6842;SDS011;3460;52.028;8.916;2023-04-09T11:42:12;13.90;;;10.03;;
6842;SDS011;3460;52.028;8.916;2023-04-09T11:44:39;14.67;;;10.73;;
6842;SDS011;3460;52.028;8.916;2023-04-09T11:47:06;15.27;;;11.43;;
6842;SDS011;3460;52.028;8.916;2023-04-09T11:49:34;15.83;;;11.83;;
6842;SDS011;3460;52.028;8.916;2023-04-09T11:52:02;14.83;;;11.70;;
6842;SDS011;3460;52.028;8.916;2023-04-09T11:54:30;15.47;;;12.10;;
6842;SDS011;3460;52.028;8.916;2023-04-09T11:56:57;14.63;;;11.60;;
6842;SDS011;3460;52.028;8.916;2023-04-09T11:59:24;16.67;;;11.77;;
6842;SDS011;3460;52.028;8.916;2023-04-09T12:01:51;14.10;;;11.27;;
6842;SDS011;3460;52.028;8.916;2023-04-09T12:04:18;15.57;;;11.77;;
6842;SDS011;3460;52.028;8.916;2023-04-09T12:06:46;14.07;;;11.63;;
6842;SDS011;3460;52.028;8.916;2023-04-09T12:09:14;15.63;;;12.07;;
6842;SDS011;3460;52.028;8.916;2023-04-09T12:11:42;16.00;;;11.57;;
6842;SDS011;3460;52.028;8.916;2023-04-09T12:14:11;14.47;;;11.07;;
6842;SDS011;3460;52.028;8.916;2023-04-09T12:16:38;29.53;;;19.33;;
6842;SDS011;3460;52.028;8.916;2023-04-09T12:19:08;15.40;;;11.90;;
6842;SDS011;3460;52.028;8.916;2023-04-09T12:21:45;15.87;;;11.67;;
6842;SDS011;3460;52.028;8.916;2023-04-09T12:24:14;13.83;;;11.57;;
6842;SDS011;3460;52.028;8.916;2023-04-09T12:26:43;15.80;;;11.33;;
6842;SDS011;3460;52.028;8.916;2023-04-09T12:29:10;15.77;;;11.90;;
6842;SDS011;3460;52.028;8.916;2023-04-09T12:31:37;15.00;;;11.60;;
6842;SDS011;3460;52.028;8.916;2023-04-09T12:34:04;14.73;;;10.87;;
6842;SDS011;3460;52.028;8.916;2023-04-09T12:36:30;15.53;;;11.50;;
6842;SDS011;3460;52.028;8.916;2023-04-09T12:38:57;16.70;;;11.83;;
6842;SDS011;3460;52.028;8.916;2023-04-09T12:41:25;16.93;;;12.07;;
6842;SDS011;3460;52.028;8.916;2023-04-09T12:43:52;15.63;;;11.37;;
6842;SDS011;3460;52.028;8.916;2023-04-09T12:46:19;15.27;;;11.73;;
6842;SDS011;3460;52.028;8.916;2023-04-09T12:48:46;14.73;;;11.50;;
6842;SDS011;3460;52.028;8.916;2023-04-09T12:51:13;17.00;;;12.03;;
6842;SDS011;3460;52.028;8.916;2023-04-09T12:53:41;15.97;;;11.93;;
6842;SDS011;3460;52.028;8.916;2023-04-09T12:56:08;17.23;;;12.33;;
6842;SDS011;3460;52.028;8.916;2023-04-09T12:58:36;17.10;;;11.90;;
6842;SDS011;3460;52.028;8.916;2023-04-09T13:01:03;15.50;;;10.73;;
6842;SDS011;3460;52.028;8.916;2023-04-09T13:03:30;15.43;;;11.27;;
6842;SDS011;3460;52.028;8.916;2023-04-09T13:05:57;14.73;;;11.23;;
6842;SDS011;3460;52.028;8.916;2023-04-09T13:08:23;14.93;;;11.13;;
6842;SDS011;3460;52.028;8.916;2023-04-09T13:10:50;15.57;;;11.40;;
6842;SDS011;3460;52.028;8.916;2023-04-09T13:13:17;14.53;;;11.07;;
6842;SDS011;3460;52.028;8.916;2023-04-09T13:15:46;14.93;;;10.83;;
6842;SDS011;3460;52.028;8.916;2023-04-09T13:18:13;14.50;;;10.93;;
6842;SDS011;3460;52.028;8.916;2023-04-09T13:20:40;14.87;;;9.87;;
6842;SDS011;3460;52.028;8.916;2023-04-09T13:23:07;15.07;;;10.77;;
6842;SDS011;3460;52.028;8.916;2023-04-09T13:25:33;16.60;;;10.90;;
6842;SDS011;3460;52.028;8.916;2023-04-09T13:28:00;13.77;;;10.03;;
6842;SDS011;3460;52.028;8.916;2023-04-09T13:30:27;14.10;;;9.97;;
6842;SDS011;3460;52.028;8.916;2023-04-09T13:32:55;15.80;;;10.23;;
6842;SDS011;3460;52.028;8.916;2023-04-09T13:35:22;12.97;;;10.03;;
6842;SDS011;3460;52.028;8.916;2023-04-09T13:37:49;15.13;;;10.63;;
6842;SDS011;3460;52.028;8.916;2023-04-09T13:40:16;13.67;;;10.07;;
6842;SDS011;3460;52.028;8.916;2023-04-09T13:42:42;15.63;;;11.20;;
6842;SDS011;3460;52.028;8.916;2023-04-09T13:45:09;16.03;;;10.87;;
6842;SDS011;3460;52.028;8.916;2023-04-09T13:47:36;14.10;;;10.70;;
6842;SDS011;3460;52.028;8.916;2023-04-09T13:50:05;12.37;;;9.83;;
6842;SDS011;3460;52.028;8.916;2023-04-09T13:52:34;13.10;;;10.27;;
6842;SDS011;3460;52.028;8.916;2023-04-09T13:55:01;13.47;;;9.73;;
6842;SDS011;3460;52.028;8.916;2023-04-09T13:57:28;13.63;;;9.27;;
6842;SDS011;3460;52.028;8.916;2023-04-09T13:59:55;12.17;;;9.07;;
6842;SDS011;3460;52.028;8.916;2023-04-09T14:02:25;12.73;;;9.63;;
6842;SDS011;3460;52.028;8.916;2023-04-09T14:04:53;16.40;;;10.80;;
6842;SDS011;3460;52.028;8.916;2023-04-09T14:07:22;12.83;;;10.30;;
6842;SDS011;3460;52.028;8.916;2023-04-09T14:09:49;13.67;;;9.73;;
6842;SDS011;3460;52.028;8.916;2023-04-09T14:12:16;13.13;;;9.07;;
6842;SDS011;3460;52.028;8.916;2023-04-09T14:14:43;14.90;;;10.73;;
6842;SDS011;3460;52.028;8.916;2023-04-09T14:17:10;12.77;;;9.50;;
6842;SDS011;3460;52.028;8.916;2023-04-09T14:19:37;12.63;;;9.37;;
6842;SDS011;3460;52.028;8.916;2023-04-09T14:22:04;13.80;;;9.77;;
6842;SDS011;3460;52.028;8.916;2023-04-09T14:24:34;14.33;;;9.93;;
6842;SDS011;3460;52.028;8.916;2023-04-09T14:27:03;12.63;;;10.20;;
6842;SDS011;3460;52.028;8.916;2023-04-09T14:29:30;12.47;;;9.57;;
6842;SDS011;3460;52.028;8.916;2023-04-09T14:31:57;10.93;;;8.90;;
6842;SDS011;3460;52.028;8.916;2023-04-09T14:34:25;11.10;;;8.93;;
6842;SDS011;3460;52.028;8.916;2023-04-09T14:36:51;12.53;;;10.23;;
6842;SDS011;3460;52.028;8.916;2023-04-09T14:39:18;11.37;;;9.20;;
6842;SDS011;3460;52.028;8.916;2023-04-09T14:41:47;11.13;;;8.50;;
6842;SDS011;3460;52.028;8.916;2023-04-09T14:44:13;12.27;;;9.17;;
6842;SDS011;3460;52.028;8.916;2023-04-09T14:46:41;11.93;;;9.13;;
6842;SDS011;3460;52.028;8.916;2023-04-09T14:49:08;11.20;;;8.97;;
6842;SDS011;3460;52.028;8.916;2023-04-09T14:51:35;16.63;;;12.23;;